sensor_id;sensor_type;location;lat;lon;timestamp;P1;durP1;ratioP1;P2;durP2;ratioP2
57667;SDS011;43499;52.366;12.912;2023-04-19T00:00:32;14.90;;;5.53;;
57667;SDS011;43499;52.366;12.912;2023-04-19T00:01:35;11.98;;;5.72;;
57667;SDS011;43499;52.366;12.912;2023-04-19T00:02:36;15.88;;;5.68;;
57667;SDS011;43499;52.366;12.912;2023-04-19T00:03:37;13.32;;;5.28;;
57667;SDS011;43499;52.366;12.912;2023-04-19T00:04:38;20.58;;;6.88;;
57667;SDS011;43499;52.366;12.912;2023-04-19T00:05:39;10.13;;;5.63;;
57667;SDS011;43499;52.366;12.912;2023-04-19T00:06:41;18.00;;;6.38;;
57667;SDS011;43499;52.366;12.912;2023-04-19T00:07:42;18.05;;;6.95;;
57667;SDS011;43499;52.366;12.912;2023-04-19T00:08:43;16.52;;;5.82;;
57667;SDS011;43499;52.366;12.912;2023-04-19T00:09:44;13.82;;;5.53;;
57667;SDS011;43499;52.366;12.912;2023-04-19T00:10:45;17.65;;;7.45;;
57667;SDS011;43499;52.366;12.912;2023-04-19T00:11:46;9.82;;;5.53;;
57667;SDS011;43499;52.366;12.912;2023-04-19T00:12:47;11.55;;;5.75;;
57667;SDS011;43499;52.366;12.912;2023-04-19T00:13:48;11.68;;;5.75;;
57667;SDS011;43499;52.366;12.912;2023-04-19T00:14:49;17.15;;;5.80;;
57667;SDS011;43499;52.366;12.912;2023-04-19T00:15:50;11.02;;;5.85;;
57667;SDS011;43499;52.366;12.912;2023-04-19T00:16:51;12.35;;;6.07;;
57667;SDS011;43499;52.366;12.912;2023-04-19T00:17:52;14.80;;;5.88;;
57667;SDS011;43499;52.366;12.912;2023-04-19T00:18:53;12.32;;;5.80;;
57667;SDS011;43499;52.366;12.912;2023-04-19T00:19:55;15.65;;;6.07;;
57667;SDS011;43499;52.366;12.912;2023-04-19T00:20:56;12.98;;;6.43;;
57667;SDS011;43499;52.366;12.912;2023-04-19T00:21:57;15.23;;;6.05;;
57667;SDS011;43499;52.366;12.912;2023-04-19T00:22:58;17.13;;;6.00;;
57667;SDS011;43499;52.366;12.912;2023-04-19T00:24:00;12.38;;;5.55;;
57667;SDS011;43499;52.366;12.912;2023-04-19T00:25:02;11.60;;;5.90;;
57667;SDS011;43499;52.366;12.912;2023-04-19T00:26:04;12.13;;;5.75;;
57667;SDS011;43499;52.366;12.912;2023-04-19T00:27:05;16.40;;;5.93;;
57667;SDS011;43499;52.366;12.912;2023-04-19T00:28:06;17.52;;;6.70;;
57667;SDS011;43499;52.366;12.912;2023-04-19T00:29:07;18.85;;;6.05;;
57667;SDS011;43499;52.366;12.912;2023-04-19T00:30:09;14.32;;;5.95;;
57667;SDS011;43499;52.366;12.912;2023-04-19T00:31:10;16.30;;;6.43;;
57667;SDS011;43499;52.366;12.912;2023-04-19T00:32:11;23.52;;;5.85;;
57667;SDS011;43499;52.366;12.912;2023-04-19T00:33:13;13.10;;;5.10;;
57667;SDS011;43499;52.366;12.912;2023-04-19T00:34:14;15.95;;;6.30;;
57667;SDS011;43499;52.366;12.912;2023-04-19T00:35:15;11.65;;;5.47;;
57667;SDS011;43499;52.366;12.912;2023-04-19T00:36:16;18.23;;;7.13;;
57667;SDS011;43499;52.366;12.912;2023-04-19T00:37:17;15.25;;;5.95;;
57667;SDS011;43499;52.366;12.912;2023-04-19T00:38:18;12.68;;;6.07;;
57667;SDS011;43499;52.366;12.912;2023-04-19T00:39:19;11.75;;;6.03;;
57667;SDS011;43499;52.366;12.912;2023-04-19T00:40:20;12.45;;;5.50;;
57667;SDS011;43499;52.366;12.912;2023-04-19T00:41:21;13.85;;;6.10;;
57667;SDS011;43499;52.366;12.912;2023-04-19T00:42:22;13.25;;;5.57;;
57667;SDS011;43499;52.366;12.912;2023-04-19T00:43:23;11.38;;;5.15;;
57667;SDS011;43499;52.366;12.912;2023-04-19T00:44:24;8.65;;;5.13;;
57667;SDS011;43499;52.366;12.912;2023-04-19T00:45:25;15.68;;;6.78;;
57667;SDS011;43499;52.366;12.912;2023-04-19T00:46:26;9.52;;;4.95;;
57667;SDS011;43499;52.366;12.912;2023-04-19T00:47:27;14.50;;;6.03;;
57667;SDS011;43499;52.366;12.912;2023-04-19T00:48:28;15.15;;;6.15;;
57667;SDS011;43499;52.366;12.912;2023-04-19T00:49:30;12.32;;;5.63;;
57667;SDS011;43499;52.366;12.912;2023-04-19T00:50:31;17.50;;;5.82;;
57667;SDS011;43499;52.366;12.912;2023-04-19T00:51:33;19.08;;;6.35;;
57667;SDS011;43499;52.366;12.912;2023-04-19T00:52:34;20.13;;;6.20;;
57667;SDS011;43499;52.366;12.912;2023-04-19T00:53:35;13.45;;;5.80;;
57667;SDS011;43499;52.366;12.912;2023-04-19T00:54:36;15.45;;;5.43;;
57667;SDS011;43499;52.366;12.912;2023-04-19T00:55:38;15.35;;;5.43;;
57667;SDS011;43499;52.366;12.912;2023-04-19T00:56:39;15.70;;;5.80;;
57667;SDS011;43499;52.366;12.912;2023-04-19T00:57:40;12.65;;;4.63;;
57667;SDS011;43499;52.366;12.912;2023-04-19T00:58:43;14.48;;;4.88;;
57667;SDS011;43499;52.366;12.912;2023-04-19T00:59:45;12.18;;;5.07;;
57667;SDS011;43499;52.366;12.912;2023-04-19T01:00:46;11.00;;;4.75;;
57667;SDS011;43499;52.366;12.912;2023-04-19T01:01:47;11.00;;;5.07;;
57667;SDS011;43499;52.366;12.912;2023-04-19T01:02:49;11.45;;;5.00;;
57667;SDS011;43499;52.366;12.912;2023-04-19T01:03:52;13.10;;;5.30;;
57667;SDS011;43499;52.366;12.912;2023-04-19T01:04:54;8.63;;;5.05;;
57667;SDS011;43499;52.366;12.912;2023-04-19T01:05:56;14.32;;;5.72;;
57667;SDS011;43499;52.366;12.912;2023-04-19T01:06:57;11.70;;;4.88;;
57667;SDS011;43499;52.366;12.912;2023-04-19T01:07:58;11.60;;;4.65;;
57667;SDS011;43499;52.366;12.912;2023-04-19T01:08:59;13.68;;;5.07;;
57667;SDS011;43499;52.366;12.912;2023-04-19T01:10:00;12.45;;;5.18;;
57667;SDS011;43499;52.366;12.912;2023-04-19T01:11:01;8.90;;;4.82;;
57667;SDS011;43499;52.366;12.912;2023-04-19T01:12:02;12.23;;;5.30;;
57667;SDS011;43499;52.366;12.912;2023-04-19T01:13:03;9.13;;;4.65;;
57667;SDS011;43499;52.366;12.912;2023-04-19T01:14:04;9.57;;;5.00;;
57667;SDS011;43499;52.366;12.912;2023-04-19T01:15:05;9.38;;;4.75;;
57667;SDS011;43499;52.366;12.912;2023-04-19T01:16:07;11.77;;;4.60;;
57667;SDS011;43499;52.366;12.912;2023-04-19T01:17:08;14.35;;;5.75;;
57667;SDS011;43499;52.366;12.912;2023-04-19T01:18:09;10.18;;;4.78;;
57667;SDS011;43499;52.366;12.912;2023-04-19T01:19:11;11.98;;;4.75;;
57667;SDS011;43499;52.366;12.912;2023-04-19T01:20:12;12.70;;;4.43;;
57667;SDS011;43499;52.366;12.912;2023-04-19T01:21:13;14.88;;;4.68;;
57667;SDS011;43499;52.366;12.912;2023-04-19T01:22:15;8.75;;;4.40;;
57667;SDS011;43499;52.366;12.912;2023-04-19T01:23:19;9.30;;;4.13;;
57667;SDS011;43499;52.366;12.912;2023-04-19T01:24:20;11.82;;;4.32;;
57667;SDS011;43499;52.366;12.912;2023-04-19T01:25:24;7.55;;;4.50;;
57667;SDS011;43499;52.366;12.912;2023-04-19T01:26:26;12.65;;;4.20;;
57667;SDS011;43499;52.366;12.912;2023-04-19T01:27:27;28.40;;;4.78;;
57667;SDS011;43499;52.366;12.912;2023-04-19T01:28:28;9.73;;;4.15;;
57667;SDS011;43499;52.366;12.912;2023-04-19T01:29:29;12.65;;;5.35;;
57667;SDS011;43499;52.366;12.912;2023-04-19T01:30:31;11.85;;;4.22;;
57667;SDS011;43499;52.366;12.912;2023-04-19T01:31:32;9.35;;;3.90;;
57667;SDS011;43499;52.366;12.912;2023-04-19T01:32:33;13.02;;;4.97;;
57667;SDS011;43499;52.366;12.912;2023-04-19T01:33:34;8.95;;;4.05;;
57667;SDS011;43499;52.366;12.912;2023-04-19T01:34:36;12.98;;;4.55;;
57667;SDS011;43499;52.366;12.912;2023-04-19T01:35:38;13.27;;;4.90;;
57667;SDS011;43499;52.366;12.912;2023-04-19T01:36:41;8.77;;;4.25;;
57667;SDS011;43499;52.366;12.912;2023-04-19T01:37:42;9.30;;;4.30;;
57667;SDS011;43499;52.366;12.912;2023-04-19T01:38:44;7.90;;;4.22;;
57667;SDS011;43499;52.366;12.912;2023-04-19T01:39:47;12.88;;;4.28;;
57667;SDS011;43499;52.366;12.912;2023-04-19T01:40:48;7.45;;;4.10;;
57667;SDS011;43499;52.366;12.912;2023-04-19T01:41:49;12.10;;;4.90;;
57667;SDS011;43499;52.366;12.912;2023-04-19T01:42:50;11.35;;;4.35;;
57667;SDS011;43499;52.366;12.912;2023-04-19T01:43:51;8.48;;;4.35;;
57667;SDS011;43499;52.366;12.912;2023-04-19T01:44:52;9.15;;;4.03;;
57667;SDS011;43499;52.366;12.912;2023-04-19T01:45:53;7.60;;;4.40;;
57667;SDS011;43499;52.366;12.912;2023-04-19T01:46:55;8.93;;;4.25;;
57667;SDS011;43499;52.366;12.912;2023-04-19T01:47:56;9.90;;;4.40;;
57667;SDS011;43499;52.366;12.912;2023-04-19T01:48:57;12.23;;;4.93;;
57667;SDS011;43499;52.366;12.912;2023-04-19T01:49:58;8.30;;;4.72;;
57667;SDS011;43499;52.366;12.912;2023-04-19T01:50:59;11.13;;;4.90;;
57667;SDS011;43499;52.366;12.912;2023-04-19T01:52:01;9.15;;;4.00;;
57667;SDS011;43499;52.366;12.912;2023-04-19T01:53:02;9.00;;;4.82;;
57667;SDS011;43499;52.366;12.912;2023-04-19T01:54:03;9.18;;;4.57;;
57667;SDS011;43499;52.366;12.912;2023-04-19T01:55:04;10.30;;;4.50;;
57667;SDS011;43499;52.366;12.912;2023-04-19T01:56:05;16.05;;;4.18;;
57667;SDS011;43499;52.366;12.912;2023-04-19T01:57:06;9.68;;;4.10;;
57667;SDS011;43499;52.366;12.912;2023-04-19T01:58:07;10.65;;;4.85;;
57667;SDS011;43499;52.366;12.912;2023-04-19T01:59:09;9.05;;;4.78;;
57667;SDS011;43499;52.366;12.912;2023-04-19T02:00:10;13.15;;;5.68;;
57667;SDS011;43499;52.366;12.912;2023-04-19T02:01:18;12.90;;;5.25;;
57667;SDS011;43499;52.366;12.912;2023-04-19T02:02:19;13.68;;;4.43;;
57667;SDS011;43499;52.366;12.912;2023-04-19T02:03:20;9.82;;;4.80;;
57667;SDS011;43499;52.366;12.912;2023-04-19T02:04:21;9.57;;;4.63;;
57667;SDS011;43499;52.366;12.912;2023-04-19T02:05:22;11.85;;;5.03;;
57667;SDS011;43499;52.366;12.912;2023-04-19T02:06:23;14.68;;;5.15;;
57667;SDS011;43499;52.366;12.912;2023-04-19T02:07:25;7.50;;;4.78;;
57667;SDS011;43499;52.366;12.912;2023-04-19T02:08:26;13.02;;;4.97;;
57667;SDS011;43499;52.366;12.912;2023-04-19T02:09:27;9.13;;;4.53;;
57667;SDS011;43499;52.366;12.912;2023-04-19T02:10:28;11.27;;;5.07;;
57667;SDS011;43499;52.366;12.912;2023-04-19T02:11:29;10.70;;;5.13;;
57667;SDS011;43499;52.366;12.912;2023-04-19T02:12:30;9.80;;;4.63;;
57667;SDS011;43499;52.366;12.912;2023-04-19T02:13:36;11.80;;;4.90;;
57667;SDS011;43499;52.366;12.912;2023-04-19T02:14:40;11.45;;;4.53;;
57667;SDS011;43499;52.366;12.912;2023-04-19T02:15:43;11.13;;;4.50;;
57667;SDS011;43499;52.366;12.912;2023-04-19T02:16:44;10.20;;;4.75;;
57667;SDS011;43499;52.366;12.912;2023-04-19T02:17:45;14.25;;;4.60;;
57667;SDS011;43499;52.366;12.912;2023-04-19T02:18:46;10.98;;;4.68;;
57667;SDS011;43499;52.366;12.912;2023-04-19T02:19:47;8.57;;;4.93;;
57667;SDS011;43499;52.366;12.912;2023-04-19T02:20:49;12.68;;;4.70;;
57667;SDS011;43499;52.366;12.912;2023-04-19T02:21:51;13.18;;;5.47;;
57667;SDS011;43499;52.366;12.912;2023-04-19T02:22:53;10.90;;;5.40;;
57667;SDS011;43499;52.366;12.912;2023-04-19T02:23:54;11.60;;;5.50;;
57667;SDS011;43499;52.366;12.912;2023-04-19T02:24:55;11.10;;;5.53;;
57667;SDS011;43499;52.366;12.912;2023-04-19T02:26:02;11.32;;;4.60;;
57667;SDS011;43499;52.366;12.912;2023-04-19T02:27:03;7.05;;;4.32;;
57667;SDS011;43499;52.366;12.912;2023-04-19T02:28:06;12.00;;;4.60;;
57667;SDS011;43499;52.366;12.912;2023-04-19T02:29:07;8.93;;;4.18;;
57667;SDS011;43499;52.366;12.912;2023-04-19T02:30:08;9.77;;;4.63;;
57667;SDS011;43499;52.366;12.912;2023-04-19T02:31:10;11.30;;;4.80;;
57667;SDS011;43499;52.366;12.912;2023-04-19T02:32:11;8.02;;;4.57;;
57667;SDS011;43499;52.366;12.912;2023-04-19T02:33:13;9.30;;;4.55;;
57667;SDS011;43499;52.366;12.912;2023-04-19T02:34:14;10.75;;;5.30;;
57667;SDS011;43499;52.366;12.912;2023-04-19T02:35:15;10.70;;;5.20;;
57667;SDS011;43499;52.366;12.912;2023-04-19T02:36:16;12.32;;;5.18;;
57667;SDS011;43499;52.366;12.912;2023-04-19T02:37:17;7.65;;;5.00;;
57667;SDS011;43499;52.366;12.912;2023-04-19T02:38:19;13.63;;;5.10;;
57667;SDS011;43499;52.366;12.912;2023-04-19T02:39:20;9.68;;;5.45;;
57667;SDS011;43499;52.366;12.912;2023-04-19T02:40:21;12.90;;;5.18;;
57667;SDS011;43499;52.366;12.912;2023-04-19T02:41:24;12.88;;;6.03;;
57667;SDS011;43499;52.366;12.912;2023-04-19T02:42:25;8.30;;;4.43;;
57667;SDS011;43499;52.366;12.912;2023-04-19T02:43:27;11.20;;;5.30;;
57667;SDS011;43499;52.366;12.912;2023-04-19T02:44:28;12.65;;;4.85;;
57667;SDS011;43499;52.366;12.912;2023-04-19T02:45:29;15.52;;;5.43;;
57667;SDS011;43499;52.366;12.912;2023-04-19T02:46:31;17.23;;;5.18;;
57667;SDS011;43499;52.366;12.912;2023-04-19T02:47:32;12.70;;;5.05;;
57667;SDS011;43499;52.366;12.912;2023-04-19T02:48:33;16.65;;;4.95;;
57667;SDS011;43499;52.366;12.912;2023-04-19T02:49:34;11.70;;;4.80;;
57667;SDS011;43499;52.366;12.912;2023-04-19T02:50:38;14.88;;;5.30;;
57667;SDS011;43499;52.366;12.912;2023-04-19T02:51:39;11.07;;;5.13;;
57667;SDS011;43499;52.366;12.912;2023-04-19T02:52:40;9.32;;;5.07;;
57667;SDS011;43499;52.366;12.912;2023-04-19T02:53:41;17.27;;;5.38;;
57667;SDS011;43499;52.366;12.912;2023-04-19T02:54:43;8.23;;;5.05;;
57667;SDS011;43499;52.366;12.912;2023-04-19T02:55:44;8.55;;;4.70;;
57667;SDS011;43499;52.366;12.912;2023-04-19T02:56:50;11.95;;;4.78;;
57667;SDS011;43499;52.366;12.912;2023-04-19T02:57:51;11.90;;;5.15;;
57667;SDS011;43499;52.366;12.912;2023-04-19T02:58:52;15.10;;;5.47;;
57667;SDS011;43499;52.366;12.912;2023-04-19T02:59:54;8.88;;;4.65;;
57667;SDS011;43499;52.366;12.912;2023-04-19T03:00:55;11.32;;;5.07;;
57667;SDS011;43499;52.366;12.912;2023-04-19T03:01:57;12.00;;;4.47;;
57667;SDS011;43499;52.366;12.912;2023-04-19T03:02:59;10.95;;;4.85;;
57667;SDS011;43499;52.366;12.912;2023-04-19T03:04:02;10.25;;;4.60;;
57667;SDS011;43499;52.366;12.912;2023-04-19T03:05:04;13.13;;;4.93;;
57667;SDS011;43499;52.366;12.912;2023-04-19T03:06:06;8.75;;;4.40;;
57667;SDS011;43499;52.366;12.912;2023-04-19T03:07:08;16.95;;;6.28;;
57667;SDS011;43499;52.366;12.912;2023-04-19T03:08:09;13.52;;;4.68;;
57667;SDS011;43499;52.366;12.912;2023-04-19T03:09:11;10.77;;;6.28;;
57667;SDS011;43499;52.366;12.912;2023-04-19T03:10:12;12.13;;;5.18;;
57667;SDS011;43499;52.366;12.912;2023-04-19T03:11:16;11.57;;;4.60;;
57667;SDS011;43499;52.366;12.912;2023-04-19T03:12:17;13.88;;;5.43;;
57667;SDS011;43499;52.366;12.912;2023-04-19T03:13:18;10.13;;;5.25;;
57667;SDS011;43499;52.366;12.912;2023-04-19T03:14:19;14.65;;;4.75;;
57667;SDS011;43499;52.366;12.912;2023-04-19T03:15:21;14.05;;;5.50;;
57667;SDS011;43499;52.366;12.912;2023-04-19T03:16:22;16.15;;;4.82;;
57667;SDS011;43499;52.366;12.912;2023-04-19T03:17:23;9.50;;;4.60;;
57667;SDS011;43499;52.366;12.912;2023-04-19T03:18:25;12.60;;;5.40;;
57667;SDS011;43499;52.366;12.912;2023-04-19T03:19:29;8.70;;;4.93;;
57667;SDS011;43499;52.366;12.912;2023-04-19T03:20:30;15.23;;;5.20;;
57667;SDS011;43499;52.366;12.912;2023-04-19T03:21:31;12.50;;;5.30;;
57667;SDS011;43499;52.366;12.912;2023-04-19T03:22:32;14.05;;;5.00;;
57667;SDS011;43499;52.366;12.912;2023-04-19T03:23:33;11.02;;;5.30;;
57667;SDS011;43499;52.366;12.912;2023-04-19T03:24:35;11.40;;;5.47;;
57667;SDS011;43499;52.366;12.912;2023-04-19T03:25:49;13.57;;;4.78;;
57667;SDS011;43499;52.366;12.912;2023-04-19T03:27:09;13.35;;;4.88;;
57667;SDS011;43499;52.366;12.912;2023-04-19T03:28:10;9.82;;;4.47;;
57667;SDS011;43499;52.366;12.912;2023-04-19T03:29:34;12.32;;;4.72;;
57667;SDS011;43499;52.366;12.912;2023-04-19T03:30:42;10.40;;;5.03;;
57667;SDS011;43499;52.366;12.912;2023-04-19T03:31:43;10.95;;;4.60;;
57667;SDS011;43499;52.366;12.912;2023-04-19T03:32:46;12.70;;;5.25;;
57667;SDS011;43499;52.366;12.912;2023-04-19T03:33:48;13.63;;;5.05;;
57667;SDS011;43499;52.366;12.912;2023-04-19T03:34:49;9.77;;;4.97;;
57667;SDS011;43499;52.366;12.912;2023-04-19T03:35:51;13.13;;;5.90;;
57667;SDS011;43499;52.366;12.912;2023-04-19T03:36:52;16.40;;;5.25;;
57667;SDS011;43499;52.366;12.912;2023-04-19T03:37:53;14.00;;;4.45;;
57667;SDS011;43499;52.366;12.912;2023-04-19T03:38:54;11.93;;;4.32;;
57667;SDS011;43499;52.366;12.912;2023-04-19T03:39:56;12.35;;;4.68;;
57667;SDS011;43499;52.366;12.912;2023-04-19T03:41:03;8.35;;;4.15;;
57667;SDS011;43499;52.366;12.912;2023-04-19T03:42:08;10.52;;;4.53;;
57667;SDS011;43499;52.366;12.912;2023-04-19T03:43:30;14.80;;;4.43;;
57667;SDS011;43499;52.366;12.912;2023-04-19T03:44:32;12.15;;;4.80;;
57667;SDS011;43499;52.366;12.912;2023-04-19T03:45:35;14.85;;;5.03;;
57667;SDS011;43499;52.366;12.912;2023-04-19T03:46:37;9.35;;;4.80;;
57667;SDS011;43499;52.366;12.912;2023-04-19T03:47:38;10.18;;;4.43;;
57667;SDS011;43499;52.366;12.912;2023-04-19T03:48:39;14.05;;;5.15;;
57667;SDS011;43499;52.366;12.912;2023-04-19T03:49:40;12.82;;;5.15;;
57667;SDS011;43499;52.366;12.912;2023-04-19T03:50:41;13.60;;;4.78;;
57667;SDS011;43499;52.366;12.912;2023-04-19T03:51:46;12.68;;;5.47;;
57667;SDS011;43499;52.366;12.912;2023-04-19T03:52:47;12.85;;;4.72;;
57667;SDS011;43499;52.366;12.912;2023-04-19T03:53:48;10.60;;;4.70;;
57667;SDS011;43499;52.366;12.912;2023-04-19T03:54:52;9.88;;;4.68;;
57667;SDS011;43499;52.366;12.912;2023-04-19T03:56:10;10.73;;;4.47;;
57667;SDS011;43499;52.366;12.912;2023-04-19T03:57:12;7.75;;;4.50;;
57667;SDS011;43499;52.366;12.912;2023-04-19T03:58:15;8.25;;;4.50;;
57667;SDS011;43499;52.366;12.912;2023-04-19T03:59:25;10.65;;;4.45;;
57667;SDS011;43499;52.366;12.912;2023-04-19T04:00:26;15.50;;;5.00;;
57667;SDS011;43499;52.366;12.912;2023-04-19T04:01:32;8.73;;;5.70;;
57667;SDS011;43499;52.366;12.912;2023-04-19T04:02:36;18.25;;;5.18;;
57667;SDS011;43499;52.366;12.912;2023-04-19T04:03:39;8.45;;;4.22;;
57667;SDS011;43499;52.366;12.912;2023-04-19T04:04:40;15.38;;;5.10;;
57667;SDS011;43499;52.366;12.912;2023-04-19T04:05:42;11.65;;;5.00;;
57667;SDS011;43499;52.366;12.912;2023-04-19T04:06:43;13.75;;;5.18;;
57667;SDS011;43499;52.366;12.912;2023-04-19T04:07:46;12.65;;;5.03;;
57667;SDS011;43499;52.366;12.912;2023-04-19T04:08:47;14.73;;;5.22;;
57667;SDS011;43499;52.366;12.912;2023-04-19T04:09:48;14.57;;;6.22;;
57667;SDS011;43499;52.366;12.912;2023-04-19T04:10:49;8.00;;;4.78;;
57667;SDS011;43499;52.366;12.912;2023-04-19T04:11:51;10.05;;;4.57;;
57667;SDS011;43499;52.366;12.912;2023-04-19T04:12:52;12.48;;;5.13;;
57667;SDS011;43499;52.366;12.912;2023-04-19T04:13:59;12.88;;;5.25;;
57667;SDS011;43499;52.366;12.912;2023-04-19T04:15:05;13.07;;;4.95;;
57667;SDS011;43499;52.366;12.912;2023-04-19T04:16:06;14.18;;;5.10;;
57667;SDS011;43499;52.366;12.912;2023-04-19T04:17:08;10.95;;;4.82;;
57667;SDS011;43499;52.366;12.912;2023-04-19T04:18:09;24.60;;;6.88;;
57667;SDS011;43499;52.366;12.912;2023-04-19T04:19:11;10.93;;;5.10;;
57667;SDS011;43499;52.366;12.912;2023-04-19T04:20:15;10.88;;;5.28;;
57667;SDS011;43499;52.366;12.912;2023-04-19T04:21:16;14.77;;;6.13;;
57667;SDS011;43499;52.366;12.912;2023-04-19T04:22:20;23.40;;;5.47;;
57667;SDS011;43499;52.366;12.912;2023-04-19T04:23:21;14.07;;;5.68;;
57667;SDS011;43499;52.366;12.912;2023-04-19T04:24:23;12.05;;;5.05;;
57667;SDS011;43499;52.366;12.912;2023-04-19T04:25:37;8.50;;;4.43;;
57667;SDS011;43499;52.366;12.912;2023-04-19T04:26:42;11.63;;;5.40;;
57667;SDS011;43499;52.366;12.912;2023-04-19T04:27:52;10.35;;;4.90;;
57667;SDS011;43499;52.366;12.912;2023-04-19T04:28:57;14.93;;;5.10;;
57667;SDS011;43499;52.366;12.912;2023-04-19T04:29:59;19.80;;;4.60;;
57667;SDS011;43499;52.366;12.912;2023-04-19T04:31:01;13.70;;;5.15;;
57667;SDS011;43499;52.366;12.912;2023-04-19T04:32:06;12.00;;;5.22;;
57667;SDS011;43499;52.366;12.912;2023-04-19T04:33:12;12.40;;;5.00;;
57667;SDS011;43499;52.366;12.912;2023-04-19T04:34:16;16.00;;;5.10;;
57667;SDS011;43499;52.366;12.912;2023-04-19T04:35:24;22.00;;;4.80;;
57667;SDS011;43499;52.366;12.912;2023-04-19T04:36:31;15.15;;;5.43;;
57667;SDS011;43499;52.366;12.912;2023-04-19T04:37:33;16.83;;;6.18;;
57667;SDS011;43499;52.366;12.912;2023-04-19T04:38:35;14.00;;;5.03;;
57667;SDS011;43499;52.366;12.912;2023-04-19T04:39:38;13.35;;;4.60;;
57667;SDS011;43499;52.366;12.912;2023-04-19T04:40:40;11.70;;;5.10;;
57667;SDS011;43499;52.366;12.912;2023-04-19T04:41:42;15.95;;;5.00;;
57667;SDS011;43499;52.366;12.912;2023-04-19T04:42:43;13.05;;;4.72;;
57667;SDS011;43499;52.366;12.912;2023-04-19T04:43:45;8.30;;;4.03;;
57667;SDS011;43499;52.366;12.912;2023-04-19T04:44:49;17.73;;;5.28;;
57667;SDS011;43499;52.366;12.912;2023-04-19T04:45:50;20.13;;;4.78;;
57667;SDS011;43499;52.366;12.912;2023-04-19T04:46:52;9.57;;;4.90;;
57667;SDS011;43499;52.366;12.912;2023-04-19T04:47:58;12.95;;;4.60;;
57667;SDS011;43499;52.366;12.912;2023-04-19T04:49:00;13.13;;;6.05;;
57667;SDS011;43499;52.366;12.912;2023-04-19T04:50:01;10.75;;;4.53;;
57667;SDS011;43499;52.366;12.912;2023-04-19T04:51:04;12.48;;;4.28;;
57667;SDS011;43499;52.366;12.912;2023-04-19T04:52:06;12.00;;;4.68;;
57667;SDS011;43499;52.366;12.912;2023-04-19T04:53:13;9.98;;;4.10;;
57667;SDS011;43499;52.366;12.912;2023-04-19T04:54:16;9.65;;;4.80;;
57667;SDS011;43499;52.366;12.912;2023-04-19T04:55:18;15.10;;;4.88;;
57667;SDS011;43499;52.366;12.912;2023-04-19T04:56:19;11.45;;;4.82;;
57667;SDS011;43499;52.366;12.912;2023-04-19T04:57:20;12.15;;;5.30;;
57667;SDS011;43499;52.366;12.912;2023-04-19T04:58:21;11.13;;;4.60;;
57667;SDS011;43499;52.366;12.912;2023-04-19T04:59:33;13.77;;;5.15;;
57667;SDS011;43499;52.366;12.912;2023-04-19T05:00:34;14.77;;;5.38;;
57667;SDS011;43499;52.366;12.912;2023-04-19T05:01:41;11.05;;;4.07;;
57667;SDS011;43499;52.366;12.912;2023-04-19T05:02:42;13.15;;;5.18;;
57667;SDS011;43499;52.366;12.912;2023-04-19T05:03:44;12.13;;;4.32;;
57667;SDS011;43499;52.366;12.912;2023-04-19T05:04:50;8.85;;;4.65;;
57667;SDS011;43499;52.366;12.912;2023-04-19T05:05:51;11.95;;;5.35;;
57667;SDS011;43499;52.366;12.912;2023-04-19T05:06:52;13.80;;;5.70;;
57667;SDS011;43499;52.366;12.912;2023-04-19T05:07:58;9.35;;;3.90;;
57667;SDS011;43499;52.366;12.912;2023-04-19T05:08:59;8.35;;;4.55;;
57667;SDS011;43499;52.366;12.912;2023-04-19T05:10:06;14.45;;;5.05;;
57667;SDS011;43499;52.366;12.912;2023-04-19T05:11:16;9.70;;;5.20;;
57667;SDS011;43499;52.366;12.912;2023-04-19T05:12:18;9.88;;;5.15;;
57667;SDS011;43499;52.366;12.912;2023-04-19T05:13:19;12.82;;;4.60;;
57667;SDS011;43499;52.366;12.912;2023-04-19T05:14:20;13.43;;;4.30;;
57667;SDS011;43499;52.366;12.912;2023-04-19T05:15:22;9.50;;;4.05;;
57667;SDS011;43499;52.366;12.912;2023-04-19T05:16:26;7.40;;;4.15;;
57667;SDS011;43499;52.366;12.912;2023-04-19T05:17:27;9.77;;;4.45;;
57667;SDS011;43499;52.366;12.912;2023-04-19T05:18:28;10.52;;;4.20;;
57667;SDS011;43499;52.366;12.912;2023-04-19T05:19:30;10.50;;;4.53;;
57667;SDS011;43499;52.366;12.912;2023-04-19T05:20:37;6.63;;;3.78;;
57667;SDS011;43499;52.366;12.912;2023-04-19T05:21:45;8.48;;;4.20;;
57667;SDS011;43499;52.366;12.912;2023-04-19T05:22:47;8.63;;;3.70;;
57667;SDS011;43499;52.366;12.912;2023-04-19T05:23:48;8.38;;;4.10;;
57667;SDS011;43499;52.366;12.912;2023-04-19T05:24:49;8.18;;;4.07;;
57667;SDS011;43499;52.366;12.912;2023-04-19T05:25:52;11.70;;;3.75;;
57667;SDS011;43499;52.366;12.912;2023-04-19T05:26:54;15.00;;;4.80;;
57667;SDS011;43499;52.366;12.912;2023-04-19T05:27:56;7.93;;;3.53;;
57667;SDS011;43499;52.366;12.912;2023-04-19T05:28:58;8.85;;;4.45;;
57667;SDS011;43499;52.366;12.912;2023-04-19T05:30:10;10.93;;;4.32;;
57667;SDS011;43499;52.366;12.912;2023-04-19T05:31:15;5.60;;;3.38;;
57667;SDS011;43499;52.366;12.912;2023-04-19T05:32:29;8.13;;;3.30;;
57667;SDS011;43499;52.366;12.912;2023-04-19T05:33:32;9.20;;;4.03;;
57667;SDS011;43499;52.366;12.912;2023-04-19T05:34:35;5.38;;;3.03;;
57667;SDS011;43499;52.366;12.912;2023-04-19T05:35:38;8.00;;;3.35;;
57667;SDS011;43499;52.366;12.912;2023-04-19T05:36:39;11.95;;;3.67;;
57667;SDS011;43499;52.366;12.912;2023-04-19T05:37:40;10.60;;;3.13;;
57667;SDS011;43499;52.366;12.912;2023-04-19T05:38:41;7.90;;;2.97;;
57667;SDS011;43499;52.366;12.912;2023-04-19T05:39:42;5.60;;;3.15;;
57667;SDS011;43499;52.366;12.912;2023-04-19T05:40:43;6.63;;;3.38;;
57667;SDS011;43499;52.366;12.912;2023-04-19T05:41:44;11.43;;;3.30;;
57667;SDS011;43499;52.366;12.912;2023-04-19T05:42:45;10.30;;;3.75;;
57667;SDS011;43499;52.366;12.912;2023-04-19T05:43:46;6.15;;;3.22;;
57667;SDS011;43499;52.366;12.912;2023-04-19T05:44:48;7.55;;;3.35;;
57667;SDS011;43499;52.366;12.912;2023-04-19T05:45:50;6.88;;;2.90;;
57667;SDS011;43499;52.366;12.912;2023-04-19T05:46:51;5.80;;;3.00;;
57667;SDS011;43499;52.366;12.912;2023-04-19T05:48:06;3.97;;;2.78;;
57667;SDS011;43499;52.366;12.912;2023-04-19T05:49:22;5.47;;;2.80;;
57667;SDS011;43499;52.366;12.912;2023-04-19T05:50:39;5.25;;;3.00;;
57667;SDS011;43499;52.366;12.912;2023-04-19T05:51:59;5.18;;;3.05;;
57667;SDS011;43499;52.366;12.912;2023-04-19T05:53:09;6.25;;;2.80;;
57667;SDS011;43499;52.366;12.912;2023-04-19T05:54:10;6.40;;;2.97;;
57667;SDS011;43499;52.366;12.912;2023-04-19T05:55:14;5.10;;;3.22;;
57667;SDS011;43499;52.366;12.912;2023-04-19T05:56:18;5.93;;;2.85;;
57667;SDS011;43499;52.366;12.912;2023-04-19T05:57:19;9.57;;;3.78;;
57667;SDS011;43499;52.366;12.912;2023-04-19T05:58:20;5.47;;;3.03;;
57667;SDS011;43499;52.366;12.912;2023-04-19T05:59:22;5.63;;;2.92;;
57667;SDS011;43499;52.366;12.912;2023-04-19T06:00:23;6.63;;;2.88;;
57667;SDS011;43499;52.366;12.912;2023-04-19T06:01:33;5.45;;;2.72;;
57667;SDS011;43499;52.366;12.912;2023-04-19T06:02:35;6.20;;;3.00;;
57667;SDS011;43499;52.366;12.912;2023-04-19T06:03:36;7.05;;;2.85;;
57667;SDS011;43499;52.366;12.912;2023-04-19T06:04:37;14.88;;;3.72;;
57667;SDS011;43499;52.366;12.912;2023-04-19T06:05:38;5.93;;;3.33;;
57667;SDS011;43499;52.366;12.912;2023-04-19T06:06:40;8.30;;;2.78;;
57667;SDS011;43499;52.366;12.912;2023-04-19T06:07:41;6.38;;;2.60;;